createdAt,value
2023-02-15T00:00:06.000Z,1007.06
2023-02-15T00:00:17.014Z,1007.05
2023-02-15T00:00:27.499Z,1007.05
2023-02-15T00:00:38.503Z,1007.05
2023-02-15T00:00:49.000Z,1007.05
2023-02-15T00:01:00.002Z,1007.04
2023-02-15T00:01:10.499Z,1007.04
2023-02-15T00:01:20.999Z,1007.05
2023-02-15T00:01:31.990Z,1007.05
2023-02-15T00:01:43.054Z,1007.04
2023-02-15T00:01:54.041Z,1007.04
2023-02-15T00:02:05.068Z,1007.03
2023-02-15T00:02:15.557Z,1007.03
2023-02-15T00:02:26.484Z,1007.03
2023-02-15T00:02:36.980Z,1007.03
2023-02-15T00:02:47.992Z,1007.02
2023-02-15T00:02:59.030Z,1007.02
2023-02-15T00:03:09.483Z,1007.02
2023-02-15T00:03:20.525Z,1007.01
2023-02-15T00:03:30.983Z,1007.01
2023-02-15T00:03:41.472Z,1007.01
2023-02-15T00:03:52.471Z,1007.01
2023-02-15T00:04:03.474Z,1007.01
2023-02-15T00:04:13.968Z,1007.00
2023-02-15T00:04:24.473Z,1007.00
2023-02-15T00:04:35.461Z,1007.00
2023-02-15T00:04:45.967Z,1006.99
2023-02-15T00:04:56.477Z,1006.99
2023-02-15T00:05:06.974Z,1006.98
2023-02-15T00:05:17.459Z,1006.98
2023-02-15T00:05:27.974Z,1006.97
2023-02-15T00:05:38.965Z,1006.97
2023-02-15T00:05:49.957Z,1006.97
2023-02-15T00:06:00.744Z,1006.97
2023-02-15T00:06:11.469Z,1006.97
2023-02-15T00:06:22.446Z,1006.97
2023-02-15T00:06:33.475Z,1006.96
2023-02-15T00:06:44.465Z,1006.96
2023-02-15T00:06:54.950Z,1006.95
2023-02-15T00:07:05.962Z,1006.95
2023-02-15T00:07:16.962Z,1006.95
2023-02-15T00:07:27.947Z,1006.94
2023-02-15T00:07:38.453Z,1006.94
2023-02-15T00:07:48.943Z,1006.93
2023-02-15T00:07:59.467Z,1006.92
2023-02-15T00:08:09.955Z,1006.92
2023-02-15T00:08:20.441Z,1006.92
2023-02-15T00:08:31.435Z,1006.92
2023-02-15T00:08:42.434Z,1006.91
2023-02-15T00:08:53.462Z,1006.91
2023-02-15T00:09:04.432Z,1006.91
2023-02-15T00:09:14.922Z,1006.91
2023-02-15T00:09:25.931Z,1006.90
2023-02-15T00:09:36.917Z,1006.90
2023-02-15T00:09:47.970Z,1006.89
2023-02-15T00:09:58.910Z,1006.89
2023-02-15T00:10:09.921Z,1006.88
2023-02-15T00:10:20.404Z,1006.88
2023-02-15T00:10:31.400Z,1006.88
2023-02-15T00:10:41.904Z,1006.87
2023-02-15T00:10:52.423Z,1006.87
2023-02-15T00:11:02.912Z,1006.86
2023-02-15T00:11:13.408Z,1006.86
2023-02-15T00:11:24.394Z,1006.86
2023-02-15T00:11:35.395Z,1006.86
2023-02-15T00:11:46.388Z,1006.86
2023-02-15T00:11:56.924Z,1006.86
2023-02-15T00:12:07.890Z,1006.85
2023-02-15T00:12:18.909Z,1006.85
2023-02-15T00:12:29.887Z,1006.85
2023-02-15T00:12:40.881Z,1006.85
2023-02-15T00:12:51.381Z,1006.84
2023-02-15T00:13:02.372Z,1006.84
2023-02-15T00:13:12.878Z,1006.84
2023-02-15T00:13:23.871Z,1006.84
2023-02-15T00:13:34.868Z,1006.84
2023-02-15T00:13:45.881Z,1006.83
2023-02-15T00:13:56.867Z,1006.83
2023-02-15T00:14:07.862Z,1006.82
2023-02-15T00:14:18.881Z,1006.82
2023-02-15T00:14:29.857Z,1006.83
2023-02-15T00:14:40.852Z,1006.82
2023-02-15T00:14:51.851Z,1006.82
2023-02-15T00:15:02.842Z,1006.82
2023-02-15T00:15:13.343Z,1006.82
2023-02-15T00:15:23.852Z,1006.82
2023-02-15T00:15:34.860Z,1006.82
2023-02-15T00:15:45.836Z,1006.82
2023-02-15T00:15:56.835Z,1006.82
2023-02-15T00:16:07.930Z,1006.82
2023-02-15T00:16:18.852Z,1006.82
2023-02-15T00:16:29.428Z,1006.82
2023-02-15T00:16:39.959Z,1006.82
2023-02-15T00:16:50.856Z,1006.82
2023-02-15T00:17:01.821Z,1006.82
2023-02-15T00:17:12.833Z,1006.82
2023-02-15T00:17:23.319Z,1006.82
2023-02-15T00:17:33.809Z,1006.82
2023-02-15T00:17:44.816Z,1006.82
2023-02-15T00:17:55.307Z,1006.82
2023-02-15T00:18:05.818Z,1006.82
2023-02-15T00:18:16.800Z,1006.82
2023-02-15T00:18:27.820Z,1006.83
2023-02-15T00:18:38.791Z,1006.82
2023-02-15T00:18:49.792Z,1006.82
2023-02-15T00:19:00.794Z,1006.83
2023-02-15T00:19:11.785Z,1006.84
2023-02-15T00:19:22.808Z,1006.83
2023-02-15T00:19:33.300Z,1006.83
2023-02-15T00:19:44.272Z,1006.83
2023-02-15T00:19:55.276Z,1006.83
2023-02-15T00:20:06.293Z,1006.83
2023-02-15T00:20:17.275Z,1006.83
2023-02-15T00:20:28.261Z,1006.83
2023-02-15T00:20:39.283Z,1006.83
2023-02-15T00:20:49.760Z,1006.82
2023-02-15T00:21:00.757Z,1006.82
2023-02-15T00:21:11.755Z,1006.82
2023-02-15T00:21:22.750Z,1006.82
2023-02-15T00:21:33.751Z,1006.81
2023-02-15T00:21:44.748Z,1006.81
2023-02-15T00:21:55.734Z,1006.81
2023-02-15T00:22:06.739Z,1006.81
2023-02-15T00:22:17.724Z,1006.81
2023-02-15T00:22:28.232Z,1006.81
2023-02-15T00:22:39.233Z,1006.81
2023-02-15T00:22:50.222Z,1006.80
2023-02-15T00:23:01.224Z,1006.80
2023-02-15T00:23:12.219Z,1006.79
2023-02-15T00:23:23.208Z,1006.78
2023-02-15T00:23:34.217Z,1006.78
2023-02-15T00:23:45.197Z,1006.78
2023-02-15T00:23:56.212Z,1006.78
2023-02-15T00:24:07.209Z,1006.78
2023-02-15T00:24:18.250Z,1006.77
2023-02-15T00:24:29.184Z,1006.77
2023-02-15T00:24:39.703Z,1006.77
2023-02-15T00:24:50.194Z,1006.77
2023-02-15T00:25:01.185Z,1006.76
2023-02-15T00:25:11.680Z,1006.76
2023-02-15T00:25:22.686Z,1006.76
2023-02-15T00:25:33.706Z,1006.76
2023-02-15T00:25:44.673Z,1006.75
2023-02-15T00:25:55.664Z,1006.75
2023-02-15T00:26:06.185Z,1006.75
2023-02-15T00:26:17.157Z,1006.75
2023-02-15T00:26:27.662Z,1006.75
2023-02-15T00:26:38.173Z,1006.74
2023-02-15T00:26:49.150Z,1006.73
2023-02-15T00:27:00.151Z,1006.73
2023-02-15T00:27:11.155Z,1006.73
2023-02-15T00:27:21.651Z,1006.73
2023-02-15T00:27:32.683Z,1006.72
2023-02-15T00:27:43.651Z,1006.71
2023-02-15T00:27:54.144Z,1006.71
2023-02-15T00:28:05.139Z,1006.71
2023-02-15T00:28:16.139Z,1006.71
2023-02-15T00:28:26.642Z,1006.71
2023-02-15T00:28:37.642Z,1006.71
2023-02-15T00:28:48.127Z,1006.71
2023-02-15T00:28:59.133Z,1006.71
2023-02-15T00:29:09.632Z,1006.71
2023-02-15T00:29:20.649Z,1006.71
2023-02-15T00:29:31.643Z,1006.71
2023-02-15T00:29:42.633Z,1006.71
2023-02-15T00:29:53.134Z,1006.70
2023-02-15T00:30:04.182Z,1006.70
2023-02-15T00:30:15.172Z,1006.71
2023-02-15T00:30:26.268Z,1006.70
2023-02-15T00:30:37.164Z,1006.70
2023-02-15T00:30:48.294Z,1006.70
2023-02-15T00:30:58.719Z,1006.70
2023-02-15T00:31:09.297Z,1006.71
2023-02-15T00:31:19.774Z,1006.70
2023-02-15T00:31:30.692Z,1006.71
2023-02-15T00:31:41.628Z,1006.71
2023-02-15T00:31:52.649Z,1006.71
2023-02-15T00:32:03.599Z,1006.71
2023-02-15T00:32:14.608Z,1006.71
2023-02-15T00:32:25.604Z,1006.72
2023-02-15T00:32:36.579Z,1006.72
2023-02-15T00:32:47.582Z,1006.72
2023-02-15T00:32:58.572Z,1006.71
2023-02-15T00:33:09.562Z,1006.72
2023-02-15T00:33:20.559Z,1006.72
2023-02-15T00:33:31.562Z,1006.72
2023-02-15T00:33:42.554Z,1006.72
2023-02-15T00:33:53.545Z,1006.72
2023-02-15T00:34:04.704Z,1006.72
2023-02-15T00:34:15.061Z,1006.72
2023-02-15T00:34:26.033Z,1006.72
2023-02-15T00:34:36.576Z,1006.72
2023-02-15T00:34:47.539Z,1006.71
2023-02-15T00:34:58.523Z,1006.71
2023-02-15T00:35:09.520Z,1006.71
2023-02-15T00:35:20.522Z,1006.71
2023-02-15T00:35:31.509Z,1006.71
2023-02-15T00:35:42.507Z,1006.71
2023-02-15T00:35:53.502Z,1006.71
2023-02-15T00:36:04.498Z,1006.71
2023-02-15T00:36:15.514Z,1006.70
2023-02-15T00:36:26.487Z,1006.71
2023-02-15T00:36:37.485Z,1006.70
2023-02-15T00:36:48.480Z,1006.69
2023-02-15T00:36:59.491Z,1006.70
2023-02-15T00:37:10.474Z,1006.69
2023-02-15T00:37:21.474Z,1006.69
2023-02-15T00:37:32.468Z,1006.68
2023-02-15T00:37:43.480Z,1006.68
2023-02-15T00:37:54.460Z,1006.69
2023-02-15T00:38:05.450Z,1006.68
2023-02-15T00:38:16.443Z,1006.68
2023-02-15T00:38:26.946Z,1006.68
2023-02-15T00:38:37.938Z,1006.68
2023-02-15T00:38:48.940Z,1006.68
2023-02-15T00:38:59.928Z,1006.68
2023-02-15T00:39:10.935Z,1006.68
2023-02-15T00:39:21.921Z,1006.68
2023-02-15T00:39:32.923Z,1006.68
2023-02-15T00:39:43.417Z,1006.68
2023-02-15T00:39:54.420Z,1006.68
2023-02-15T00:40:05.409Z,1006.68
2023-02-15T00:40:15.915Z,1006.68
2023-02-15T00:40:26.901Z,1006.68
2023-02-15T00:40:37.898Z,1006.68
2023-02-15T00:40:48.895Z,1006.68
2023-02-15T00:40:59.895Z,1006.69
2023-02-15T00:41:10.891Z,1006.69
2023-02-15T00:41:21.905Z,1006.69
2023-02-15T00:41:32.897Z,1006.69
2023-02-15T00:41:43.391Z,1006.69
2023-02-15T00:41:54.398Z,1006.69
2023-02-15T00:42:05.400Z,1006.70
2023-02-15T00:42:16.387Z,1006.69
2023-02-15T00:42:27.381Z,1006.69
2023-02-15T00:42:38.376Z,1006.69
2023-02-15T00:42:49.370Z,1006.69
2023-02-15T00:43:00.366Z,1006.69
2023-02-15T00:43:10.863Z,1006.69
2023-02-15T00:43:21.852Z,1006.70
2023-02-15T00:43:32.363Z,1006.68
2023-02-15T00:43:43.358Z,1006.69
2023-02-15T00:43:54.349Z,1006.68
2023-02-15T00:44:05.473Z,1006.68
2023-02-15T00:44:16.336Z,1006.68
2023-02-15T00:44:27.344Z,1006.68
2023-02-15T00:44:38.345Z,1006.68
2023-02-15T00:44:49.329Z,1006.68
2023-02-15T00:45:00.317Z,1006.68
2023-02-15T00:45:11.319Z,1006.67
2023-02-15T00:45:22.318Z,1006.68
2023-02-15T00:45:32.808Z,1006.67
2023-02-15T00:45:43.336Z,1006.67
2023-02-15T00:45:54.358Z,1006.67
2023-02-15T00:46:05.059Z,1006.67
2023-02-15T00:46:15.855Z,1006.67
2023-02-15T00:46:26.798Z,1006.67
2023-02-15T00:46:37.297Z,1006.67
2023-02-15T00:46:48.299Z,1006.67
2023-02-15T00:46:58.799Z,1006.67
2023-02-15T00:47:09.785Z,1006.67
2023-02-15T00:47:20.777Z,1006.67
2023-02-15T00:47:31.299Z,1006.67
2023-02-15T00:47:42.278Z,1006.67
2023-02-15T00:47:53.276Z,1006.67
2023-02-15T00:48:04.264Z,1006.68
2023-02-15T00:48:15.262Z,1006.67
2023-02-15T00:48:25.760Z,1006.67
2023-02-15T00:48:36.778Z,1006.67
2023-02-15T00:48:47.754Z,1006.67
2023-02-15T00:48:58.749Z,1006.67
2023-02-15T00:49:09.765Z,1006.67
2023-02-15T00:49:20.760Z,1006.67
2023-02-15T00:49:31.743Z,1006.67
2023-02-15T00:49:42.738Z,1006.67
2023-02-15T00:49:53.725Z,1006.67
2023-02-15T00:50:04.728Z,1006.67
2023-02-15T00:50:15.725Z,1006.67
2023-02-15T00:50:26.715Z,1006.67
2023-02-15T00:50:37.709Z,1006.68
2023-02-15T00:50:48.703Z,1006.67
2023-02-15T00:50:59.702Z,1006.66
2023-02-15T00:51:10.711Z,1006.66
2023-02-15T00:51:21.693Z,1006.66
2023-02-15T00:51:32.686Z,1006.67
2023-02-15T00:51:43.688Z,1006.67
2023-02-15T00:51:54.673Z,1006.66
2023-02-15T00:52:05.668Z,1006.67
2023-02-15T00:52:16.674Z,1006.66
2023-02-15T00:52:27.663Z,1006.66
2023-02-15T00:52:38.658Z,1006.66
2023-02-15T00:52:49.160Z,1006.66
2023-02-15T00:53:00.153Z,1006.66
2023-02-15T00:53:11.153Z,1006.66
2023-02-15T00:53:22.156Z,1006.65
2023-02-15T00:53:33.142Z,1006.66
2023-02-15T00:53:44.144Z,1006.66
2023-02-15T00:53:54.665Z,1006.66
2023-02-15T00:54:05.657Z,1006.66
2023-02-15T00:54:16.653Z,1006.66
2023-02-15T00:54:27.636Z,1006.66
2023-02-15T00:54:38.651Z,1006.66
2023-02-15T00:54:49.632Z,1006.65
2023-02-15T00:55:00.139Z,1006.66
2023-02-15T00:55:11.126Z,1006.66
2023-02-15T00:55:21.623Z,1006.66
2023-02-15T00:55:32.149Z,1006.65
2023-02-15T00:55:43.135Z,1006.65
2023-02-15T00:55:54.119Z,1006.65
2023-02-15T00:56:04.936Z,1006.65
2023-02-15T00:56:15.611Z,1006.65
2023-02-15T00:56:26.116Z,1006.65
2023-02-15T00:56:37.115Z,1006.65
2023-02-15T00:56:48.105Z,1006.65
2023-02-15T00:56:58.612Z,1006.65
2023-02-15T00:57:09.599Z,1006.66
2023-02-15T00:57:20.099Z,1006.66
2023-02-15T00:57:31.098Z,1006.65
2023-02-15T00:57:42.097Z,1006.65
2023-02-15T00:57:53.103Z,1006.65
2023-02-15T00:58:03.585Z,1006.65
2023-02-15T00:58:14.096Z,1006.65
2023-02-15T00:58:25.080Z,1006.65
2023-02-15T00:58:36.078Z,1006.65
2023-02-15T00:58:47.087Z,1006.64
2023-02-15T00:58:58.071Z,1006.64
2023-02-15T00:59:09.097Z,1006.64
2023-02-15T00:59:20.106Z,1006.64
2023-02-15T00:59:31.113Z,1006.63
2023-02-15T00:59:42.050Z,1006.63
2023-02-15T00:59:53.049Z,1006.63
2023-02-15T01:00:03.541Z,1006.63
2023-02-15T01:00:14.536Z,1006.63
2023-02-15T01:00:25.540Z,1006.63
2023-02-15T01:00:36.540Z,1006.63
2023-02-15T01:00:47.533Z,1006.62
2023-02-15T01:00:58.550Z,1006.62
2023-02-15T01:01:09.599Z,1006.62
2023-02-15T01:01:20.567Z,1006.62
2023-02-15T01:01:31.522Z,1006.62
2023-02-15T01:01:42.512Z,1006.61
2023-02-15T01:01:53.506Z,1006.61
2023-02-15T01:02:04.499Z,1006.61
2023-02-15T01:02:15.488Z,1006.61
2023-02-15T01:02:26.484Z,1006.61
2023-02-15T01:02:37.008Z,1006.60
2023-02-15T01:02:47.980Z,1006.60
2023-02-15T01:02:58.973Z,1006.60
2023-02-15T01:03:09.973Z,1006.60
2023-02-15T01:03:20.969Z,1006.60
2023-02-15T01:03:31.968Z,1006.59
2023-02-15T01:03:42.957Z,1006.59
2023-02-15T01:03:54.010Z,1006.59
2023-02-15T01:04:05.035Z,1006.59
2023-02-15T01:04:15.955Z,1006.59
2023-02-15T01:04:27.047Z,1006.59
2023-02-15T01:04:37.510Z,1006.58
2023-02-15T01:04:48.461Z,1006.58
2023-02-15T01:04:59.438Z,1006.58
2023-02-15T01:05:10.427Z,1006.58
2023-02-15T01:05:21.437Z,1006.58
2023-02-15T01:05:31.922Z,1006.58
2023-02-15T01:05:42.918Z,1006.58
2023-02-15T01:05:53.915Z,1006.58
2023-02-15T01:06:04.918Z,1006.59
2023-02-15T01:06:15.912Z,1006.59
2023-02-15T01:06:26.901Z,1006.58
2023-02-15T01:06:37.403Z,1006.59
2023-02-15T01:06:48.398Z,1006.58
2023-02-15T01:06:59.391Z,1006.59
2023-02-15T01:07:10.388Z,1006.58
2023-02-15T01:07:21.394Z,1006.58
2023-02-15T01:07:32.384Z,1006.58
2023-02-15T01:07:43.384Z,1006.58
2023-02-15T01:07:54.707Z,1006.58
2023-02-15T01:08:05.370Z,1006.58
2023-02-15T01:08:15.861Z,1006.59
2023-02-15T01:08:26.863Z,1006.59
2023-02-15T01:08:37.851Z,1006.58
2023-02-15T01:08:48.850Z,1006.58
2023-02-15T01:08:59.846Z,1006.58
2023-02-15T01:09:10.856Z,1006.58
2023-02-15T01:09:21.840Z,1006.59
2023-02-15T01:09:32.866Z,1006.58
2023-02-15T01:09:43.827Z,1006.58
2023-02-15T01:09:54.833Z,1006.58
2023-02-15T01:10:05.857Z,1006.58
2023-02-15T01:10:16.819Z,1006.58
2023-02-15T01:10:27.812Z,1006.58
2023-02-15T01:10:38.816Z,1006.58
2023-02-15T01:10:49.829Z,1006.59
2023-02-15T01:11:00.798Z,1006.58
2023-02-15T01:11:11.799Z,1006.58
2023-02-15T01:11:23.365Z,1006.58
2023-02-15T01:11:33.786Z,1006.58
2023-02-15T01:11:44.783Z,1006.58
2023-02-15T01:11:55.780Z,1006.58
2023-02-15T01:12:06.773Z,1006.58
2023-02-15T01:12:17.772Z,1006.58
2023-02-15T01:12:28.765Z,1006.58
2023-02-15T01:12:39.762Z,1006.58
2023-02-15T01:12:50.756Z,1006.58
2023-02-15T01:13:01.254Z,1006.58
2023-02-15T01:13:11.757Z,1006.58
2023-02-15T01:13:22.758Z,1006.58
2023-02-15T01:13:33.748Z,1006.58
2023-02-15T01:13:44.272Z,1006.58
2023-02-15T01:13:54.769Z,1006.58
2023-02-15T01:14:05.749Z,1006.58
2023-02-15T01:14:16.760Z,1006.58
2023-02-15T01:14:27.244Z,1006.58
2023-02-15T01:14:38.240Z,1006.58
2023-02-15T01:14:48.776Z,1006.58
2023-02-15T01:14:59.253Z,1006.57
2023-02-15T01:15:10.241Z,1006.57
2023-02-15T01:15:20.749Z,1006.57
2023-02-15T01:15:31.237Z,1006.57
2023-02-15T01:15:44.018Z,1006.57
2023-02-15T01:15:53.298Z,1006.57
2023-02-15T01:16:04.165Z,1006.57
2023-02-15T01:16:14.831Z,1006.56
2023-02-15T01:16:25.838Z,1006.57
2023-02-15T01:16:36.235Z,1006.56
2023-02-15T01:16:47.222Z,1006.56
2023-02-15T01:16:57.732Z,1006.55
2023-02-15T01:17:08.229Z,1006.55
2023-02-15T01:17:18.727Z,1006.55
2023-02-15T01:17:29.733Z,1006.54
2023-02-15T01:17:40.247Z,1006.54
2023-02-15T01:17:51.232Z,1006.54
2023-02-15T01:18:01.717Z,1006.54
2023-02-15T01:18:12.713Z,1006.53
2023-02-15T01:18:23.713Z,1006.52
2023-02-15T01:18:34.212Z,1006.52
2023-02-15T01:18:44.714Z,1006.52
2023-02-15T01:18:55.795Z,1006.53
2023-02-15T01:19:06.230Z,1006.53
2023-02-15T01:19:17.208Z,1006.52
2023-02-15T01:19:27.706Z,1006.52
2023-02-15T01:19:38.708Z,1006.52
2023-02-15T01:19:49.234Z,1006.53
2023-02-15T01:19:59.703Z,1006.52
2023-02-15T01:20:10.713Z,1006.53
2023-02-15T01:20:21.723Z,1006.52
2023-02-15T01:20:32.708Z,1006.53
2023-02-15T01:20:43.709Z,1006.53
2023-02-15T01:20:54.195Z,1006.53
2023-02-15T01:21:04.702Z,1006.54
2023-02-15T01:21:15.191Z,1006.53
2023-02-15T01:21:26.233Z,1006.54
2023-02-15T01:21:37.187Z,1006.54
2023-02-15T01:21:47.707Z,1006.54
2023-02-15T01:21:58.182Z,1006.54
2023-02-15T01:22:09.185Z,1006.55
2023-02-15T01:22:20.176Z,1006.54
2023-02-15T01:22:31.182Z,1006.55
2023-02-15T01:22:42.176Z,1006.55
2023-02-15T01:22:53.177Z,1006.55
2023-02-15T01:23:04.180Z,1006.55
2023-02-15T01:23:15.181Z,1006.56
2023-02-15T01:23:25.669Z,1006.56
2023-02-15T01:23:36.180Z,1006.56
2023-02-15T01:23:46.676Z,1006.56
2023-02-15T01:23:57.169Z,1006.56
2023-02-15T01:24:07.673Z,1006.56
2023-02-15T01:24:18.670Z,1006.56
2023-02-15T01:24:29.668Z,1006.56
2023-02-15T01:24:40.670Z,1006.56
2023-02-15T01:24:51.668Z,1006.56
2023-02-15T01:25:02.667Z,1006.57
2023-02-15T01:25:13.162Z,1006.56
2023-02-15T01:25:23.668Z,1006.56
2023-02-15T01:25:34.681Z,1006.55
2023-02-15T01:25:45.162Z,1006.56
2023-02-15T01:25:56.158Z,1006.56
2023-02-15T01:26:07.156Z,1006.55
2023-02-15T01:26:17.663Z,1006.55
2023-02-15T01:26:28.690Z,1006.55
2023-02-15T01:26:39.652Z,1006.55
2023-02-15T01:26:50.649Z,1006.55
2023-02-15T01:27:01.148Z,1006.55
2023-02-15T01:27:12.140Z,1006.55
2023-02-15T01:27:23.142Z,1006.54
2023-02-15T01:27:34.137Z,1006.54
2023-02-15T01:27:45.139Z,1006.54
2023-02-15T01:27:56.132Z,1006.53
2023-02-15T01:28:07.132Z,1006.53
2023-02-15T01:28:18.124Z,1006.54
2023-02-15T01:28:29.125Z,1006.54
2023-02-15T01:28:40.124Z,1006.54
2023-02-15T01:28:50.612Z,1006.54
2023-02-15T01:29:01.616Z,1006.54
2023-02-15T01:29:12.613Z,1006.54
2023-02-15T01:29:23.615Z,1006.54
2023-02-15T01:29:34.608Z,1006.54
2023-02-15T01:29:45.606Z,1006.54
2023-02-15T01:29:56.610Z,1006.54
2023-02-15T01:30:07.140Z,1006.55
2023-02-15T01:30:17.628Z,1006.54
2023-02-15T01:30:28.600Z,1006.54
2023-02-15T01:30:39.124Z,1006.53
2023-02-15T01:30:50.186Z,1006.54
2023-02-15T01:31:00.671Z,1006.54
2023-02-15T01:31:11.225Z,1006.53
2023-02-15T01:31:22.252Z,1006.53
2023-02-15T01:31:33.217Z,1006.53
2023-02-15T01:31:44.252Z,1006.53
2023-02-15T01:31:54.667Z,1006.53
2023-02-15T01:32:05.144Z,1006.53
2023-02-15T01:32:16.070Z,1006.52
2023-02-15T01:32:27.064Z,1006.52
2023-02-15T01:32:37.567Z,1006.52
2023-02-15T01:32:48.579Z,1006.51
2023-02-15T01:32:59.060Z,1006.52
2023-02-15T01:33:10.056Z,1006.51
2023-02-15T01:33:21.058Z,1006.51
2023-02-15T01:33:32.053Z,1006.51
2023-02-15T01:33:43.049Z,1006.51
2023-02-15T01:33:54.053Z,1006.51
2023-02-15T01:34:05.052Z,1006.50
2023-02-15T01:34:16.044Z,1006.50
2023-02-15T01:34:27.044Z,1006.50
2023-02-15T01:34:38.040Z,1006.50
2023-02-15T01:34:49.033Z,1006.50
2023-02-15T01:34:59.540Z,1006.50
2023-02-15T01:35:10.532Z,1006.50
2023-02-15T01:35:21.541Z,1006.49
2023-02-15T01:35:32.541Z,1006.49
2023-02-15T01:35:43.526Z,1006.49
2023-02-15T01:35:54.022Z,1006.49
2023-02-15T01:36:04.671Z,1006.48
2023-02-15T01:36:15.532Z,1006.48
2023-02-15T01:36:26.526Z,1006.48
2023-02-15T01:36:37.090Z,1006.47
2023-02-15T01:36:48.022Z,1006.47
2023-02-15T01:36:59.016Z,1006.47
2023-02-15T01:37:10.026Z,1006.46
2023-02-15T01:37:20.519Z,1006.46
2023-02-15T01:37:31.532Z,1006.46
2023-02-15T01:37:42.507Z,1006.46
2023-02-15T01:37:53.507Z,1006.46
2023-02-15T01:38:04.013Z,1006.46
2023-02-15T01:38:15.003Z,1006.45
2023-02-15T01:38:25.513Z,1006.45
2023-02-15T01:38:36.508Z,1006.45
2023-02-15T01:38:47.520Z,1006.45
2023-02-15T01:38:58.495Z,1006.45
2023-02-15T01:39:09.500Z,1006.45
2023-02-15T01:39:20.486Z,1006.45
2023-02-15T01:39:31.480Z,1006.45
2023-02-15T01:39:41.986Z,1006.45
2023-02-15T01:39:52.971Z,1006.45
2023-02-15T01:40:03.469Z,1006.44
2023-02-15T01:40:14.470Z,1006.44
2023-02-15T01:40:24.962Z,1006.45
2023-02-15T01:40:35.474Z,1006.44
2023-02-15T01:40:46.461Z,1006.44
2023-02-15T01:40:57.455Z,1006.44
2023-02-15T01:41:08.452Z,1006.45
2023-02-15T01:41:19.451Z,1006.44
2023-02-15T01:41:30.452Z,1006.44
2023-02-15T01:41:41.466Z,1006.44
2023-02-15T01:41:52.447Z,1006.44
2023-02-15T01:42:03.458Z,1006.44
2023-02-15T01:42:13.940Z,1006.44
2023-02-15T01:42:24.438Z,1006.44
2023-02-15T01:42:35.436Z,1006.44
2023-02-15T01:42:46.427Z,1006.44
2023-02-15T01:42:57.423Z,1006.44
2023-02-15T01:43:07.916Z,1006.44
2023-02-15T01:43:18.916Z,1006.43
2023-02-15T01:43:29.424Z,1006.43
2023-02-15T01:43:40.440Z,1006.44
2023-02-15T01:43:51.414Z,1006.44
2023-02-15T01:44:02.456Z,1006.43
2023-02-15T01:44:12.904Z,1006.44
2023-02-15T01:44:23.423Z,1006.43
2023-02-15T01:44:33.899Z,1006.43
2023-02-15T01:44:44.895Z,1006.43
2023-02-15T01:44:55.898Z,1006.44
2023-02-15T01:45:06.889Z,1006.43
2023-02-15T01:45:17.883Z,1006.43
2023-02-15T01:45:28.394Z,1006.43
2023-02-15T01:45:39.411Z,1006.43
2023-02-15T01:45:50.405Z,1006.43
2023-02-15T01:46:01.732Z,1006.43
2023-02-15T01:46:11.938Z,1006.44
2023-02-15T01:46:22.937Z,1006.43
2023-02-15T01:46:34.018Z,1006.43
2023-02-15T01:46:44.374Z,1006.42
2023-02-15T01:46:55.374Z,1006.42
2023-02-15T01:47:06.383Z,1006.42
2023-02-15T01:47:16.862Z,1006.41
2023-02-15T01:47:27.872Z,1006.41
2023-02-15T01:47:38.854Z,1006.41
2023-02-15T01:47:49.354Z,1006.42
2023-02-15T01:47:59.879Z,1006.42
2023-02-15T01:48:10.847Z,1006.42
2023-02-15T01:48:21.870Z,1006.42
2023-02-15T01:48:32.350Z,1006.42
2023-02-15T01:48:43.348Z,1006.41
2023-02-15T01:48:53.843Z,1006.42
2023-02-15T01:49:04.352Z,1006.41
2023-02-15T01:49:15.343Z,1006.42
2023-02-15T01:49:25.855Z,1006.42
2023-02-15T01:49:36.357Z,1006.42
2023-02-15T01:49:47.371Z,1006.42
2023-02-15T01:49:57.841Z,1006.41
2023-02-15T01:50:08.833Z,1006.42
2023-02-15T01:50:19.832Z,1006.42
2023-02-15T01:50:30.835Z,1006.42
2023-02-15T01:50:41.829Z,1006.43
2023-02-15T01:50:52.336Z,1006.42
2023-02-15T01:51:03.544Z,1006.43
2023-02-15T01:51:14.320Z,1006.43
2023-02-15T01:51:24.823Z,1006.43
2023-02-15T01:51:35.829Z,1006.43
2023-02-15T01:51:46.334Z,1006.43
2023-02-15T01:51:56.826Z,1006.44
2023-02-15T01:52:07.336Z,1006.44
2023-02-15T01:52:18.314Z,1006.44
2023-02-15T01:52:28.816Z,1006.44
2023-02-15T01:52:39.316Z,1006.44
2023-02-15T01:52:50.312Z,1006.45
2023-02-15T01:53:01.297Z,1006.45
2023-02-15T01:53:12.296Z,1006.45
2023-02-15T01:53:22.791Z,1006.45
2023-02-15T01:53:33.790Z,1006.45
2023-02-15T01:53:44.802Z,1006.46
2023-02-15T01:53:55.797Z,1006.46
2023-02-15T01:54:06.804Z,1006.46
2023-02-15T01:54:17.801Z,1006.46
2023-02-15T01:54:28.874Z,1006.46
2023-02-15T01:54:39.276Z,1006.47
2023-02-15T01:54:49.785Z,1006.47
2023-02-15T01:55:00.773Z,1006.46
2023-02-15T01:55:11.769Z,1006.46
2023-02-15T01:55:22.770Z,1006.46
2023-02-15T01:55:33.784Z,1006.45
2023-02-15T01:55:44.274Z,1006.45
2023-02-15T01:55:55.266Z,1006.45
2023-02-15T01:56:06.271Z,1006.45
2023-02-15T01:56:16.754Z,1006.45
2023-02-15T01:56:27.746Z,1006.45
2023-02-15T01:56:38.266Z,1006.45
2023-02-15T01:56:49.240Z,1006.45
2023-02-15T01:56:59.745Z,1006.45
2023-02-15T01:57:10.740Z,1006.45
2023-02-15T01:57:21.731Z,1006.45
2023-02-15T01:57:32.729Z,1006.45
2023-02-15T01:57:43.735Z,1006.45
2023-02-15T01:57:54.722Z,1006.44
2023-02-15T01:58:05.736Z,1006.45
2023-02-15T01:58:16.730Z,1006.45
2023-02-15T01:58:27.714Z,1006.45
2023-02-15T01:58:38.208Z,1006.45
2023-02-15T01:58:49.218Z,1006.45
2023-02-15T01:59:00.206Z,1006.45
2023-02-15T01:59:11.193Z,1006.46
2023-02-15T01:59:21.694Z,1006.46
2023-02-15T01:59:32.784Z,1006.46
2023-02-15T01:59:43.682Z,1006.46
2023-02-15T01:59:54.685Z,1006.46
2023-02-15T02:00:05.683Z,1006.46
2023-02-15T02:00:16.673Z,1006.46
2023-02-15T02:00:27.668Z,1006.47
2023-02-15T02:00:38.679Z,1006.46
2023-02-15T02:00:49.670Z,1006.47
2023-02-15T02:01:01.339Z,1006.47
2023-02-15T02:01:11.205Z,1006.47
2023-02-15T02:01:21.711Z,1006.47
2023-02-15T02:01:32.261Z,1006.47
2023-02-15T02:01:43.298Z,1006.47
2023-02-15T02:01:54.216Z,1006.47
2023-02-15T02:02:05.142Z,1006.46
2023-02-15T02:02:15.764Z,1006.46
2023-02-15T02:02:26.226Z,1006.47
2023-02-15T02:02:37.183Z,1006.46
2023-02-15T02:02:47.680Z,1006.46
2023-02-15T02:02:58.680Z,1006.46
2023-02-15T02:03:09.646Z,1006.46
2023-02-15T02:03:20.647Z,1006.46
2023-02-15T02:03:31.638Z,1006.45
2023-02-15T02:03:42.627Z,1006.45
2023-02-15T02:03:53.123Z,1006.45
2023-02-15T02:04:04.110Z,1006.45
2023-02-15T02:04:15.132Z,1006.45
2023-02-15T02:04:25.609Z,1006.45
2023-02-15T02:04:36.609Z,1006.45
2023-02-15T02:04:47.615Z,1006.45
2023-02-15T02:04:58.610Z,1006.46
2023-02-15T02:05:09.623Z,1006.45
2023-02-15T02:05:20.601Z,1006.46
2023-02-15T02:05:31.597Z,1006.45
2023-02-15T02:05:42.600Z,1006.45
2023-02-15T02:05:53.598Z,1006.45
2023-02-15T02:06:04.598Z,1006.45
2023-02-15T02:06:15.088Z,1006.45
2023-02-15T02:06:26.451Z,1006.45
2023-02-15T02:06:37.117Z,1006.45
2023-02-15T02:06:48.087Z,1006.45
2023-02-15T02:06:59.091Z,1006.45
2023-02-15T02:07:10.092Z,1006.44
2023-02-15T02:07:21.086Z,1006.44
2023-02-15T02:07:32.083Z,1006.43
2023-02-15T02:07:43.098Z,1006.44
2023-02-15T02:07:54.082Z,1006.43
2023-02-15T02:08:04.570Z,1006.43
2023-02-15T02:08:15.584Z,1006.43
2023-02-15T02:08:26.576Z,1006.43
2023-02-15T02:08:37.597Z,1006.43
2023-02-15T02:08:48.568Z,1006.42
2023-02-15T02:08:59.560Z,1006.42
2023-02-15T02:09:10.557Z,1006.42
2023-02-15T02:09:21.548Z,1006.41
2023-02-15T02:09:32.059Z,1006.42
2023-02-15T02:09:43.065Z,1006.42
2023-02-15T02:09:54.049Z,1006.41
2023-02-15T02:10:05.037Z,1006.41
2023-02-15T02:10:16.062Z,1006.41
2023-02-15T02:10:27.037Z,1006.40
2023-02-15T02:10:38.024Z,1006.40
2023-02-15T02:10:49.024Z,1006.40
2023-02-15T02:11:00.032Z,1006.39
2023-02-15T02:11:10.514Z,1006.39
2023-02-15T02:11:21.514Z,1006.38